createdAt,value
2019-03-31T00:01:43.286Z,5.40
2019-03-31T00:04:11.776Z,5.40
2019-03-31T00:06:40.229Z,5.30
2019-03-31T00:09:08.934Z,5.30
2019-03-31T00:11:37.518Z,5.30
2019-03-31T00:14:06.017Z,5.20
2019-03-31T00:16:34.545Z,5.30
2019-03-31T00:19:02.978Z,5.40
2019-03-31T00:21:31.430Z,5.40
2019-03-31T00:23:59.922Z,5.30
2019-03-31T00:26:28.395Z,5.20
2019-03-31T00:28:56.805Z,5.20
2019-03-31T00:31:25.279Z,5.20
2019-03-31T00:33:53.747Z,5.20
2019-03-31T00:36:22.280Z,5.30
2019-03-31T00:38:50.674Z,5.40
2019-03-31T00:41:19.151Z,5.30
2019-03-31T00:43:47.543Z,5.20
2019-03-31T00:46:16.013Z,5.20
2019-03-31T00:48:44.419Z,5.10
2019-03-31T00:51:12.970Z,5.10
2019-03-31T00:53:41.357Z,5.20
2019-03-31T00:56:09.832Z,5.30
2019-03-31T00:58:38.240Z,5.30
2019-03-31T01:01:08.747Z,5.30
2019-03-31T01:03:37.229Z,5.20
2019-03-31T01:06:05.967Z,5.10
2019-03-31T01:08:35.506Z,5.00
2019-03-31T01:11:07.987Z,5.00
2019-03-31T01:13:36.543Z,5.00
2019-03-31T01:16:05.042Z,5.00
2019-03-31T01:18:34.027Z,4.90
2019-03-31T01:21:02.433Z,4.70
2019-03-31T01:23:30.876Z,4.60
2019-03-31T01:26:00.624Z,4.50
2019-03-31T01:28:29.127Z,4.40
2019-03-31T01:30:57.622Z,4.40
2019-03-31T01:33:26.559Z,4.40
2019-03-31T01:35:55.311Z,4.40
2019-03-31T01:38:23.824Z,4.40
2019-03-31T01:40:52.473Z,4.40
2019-03-31T01:43:21.125Z,4.40
2019-03-31T01:45:49.703Z,4.40
2019-03-31T01:48:18.213Z,4.30
2019-03-31T01:50:46.897Z,4.20
2019-03-31T01:53:15.340Z,4.10
2019-03-31T01:55:43.766Z,4.10
2019-03-31T01:58:12.272Z,4.10
2019-03-31T02:00:42.372Z,4.20
2019-03-31T02:03:10.801Z,4.20
2019-03-31T02:05:39.376Z,4.20
2019-03-31T02:08:08.250Z,4.20
2019-03-31T02:10:36.672Z,4.20
2019-03-31T02:13:05.314Z,4.10
2019-03-31T02:15:33.882Z,4.00
2019-03-31T02:18:02.307Z,4.00
2019-03-31T02:20:30.737Z,4.00
2019-03-31T02:22:59.158Z,4.10
2019-03-31T02:25:27.636Z,4.20
2019-03-31T02:27:56.064Z,4.20
2019-03-31T02:30:24.588Z,4.20
2019-03-31T02:32:53.005Z,4.20
2019-03-31T02:35:21.425Z,4.20
2019-03-31T02:37:49.834Z,4.10
2019-03-31T02:40:18.310Z,4.00
2019-03-31T02:42:48.265Z,3.90
2019-03-31T02:45:16.699Z,3.80
2019-03-31T02:47:45.101Z,3.70
2019-03-31T02:50:16.609Z,3.60
2019-03-31T02:52:45.104Z,3.60
2019-03-31T02:55:13.612Z,3.60
2019-03-31T02:57:43.225Z,3.60
2019-03-31T03:00:11.832Z,3.60
2019-03-31T03:02:42.633Z,3.60
2019-03-31T03:05:19.799Z,3.70
2019-03-31T03:07:44.096Z,3.60
2019-03-31T03:10:12.609Z,3.60
2019-03-31T03:12:42.979Z,3.60
2019-03-31T03:15:11.581Z,3.70
2019-03-31T03:17:40.021Z,3.80
2019-03-31T03:20:08.774Z,3.80
2019-03-31T03:22:37.220Z,3.80
2019-03-31T03:25:05.714Z,3.70
2019-03-31T03:27:34.170Z,3.60
2019-03-31T03:30:02.811Z,3.40
2019-03-31T03:32:31.254Z,3.30
2019-03-31T03:34:59.686Z,3.30
2019-03-31T03:37:28.201Z,3.30
2019-03-31T03:39:56.603Z,3.30
2019-03-31T03:42:25.052Z,3.20
2019-03-31T03:44:53.502Z,3.10
2019-03-31T03:47:21.966Z,3.00
2019-03-31T03:49:52.028Z,3.00
2019-03-31T03:52:20.546Z,3.00
2019-03-31T03:54:48.952Z,3.00
2019-03-31T03:57:17.408Z,3.00
2019-03-31T03:59:45.822Z,2.90
2019-03-31T04:02:14.281Z,2.90
2019-03-31T04:04:42.707Z,2.80
2019-03-31T04:07:11.129Z,2.70
2019-03-31T04:09:39.556Z,2.70
2019-03-31T04:12:07.988Z,2.70
2019-03-31T04:14:36.447Z,2.70
2019-03-31T04:17:04.882Z,2.60
2019-03-31T04:19:33.469Z,2.60
2019-03-31T04:22:01.906Z,2.60
2019-03-31T04:24:31.956Z,2.60
2019-03-31T04:27:00.402Z,2.50
2019-03-31T04:29:28.911Z,2.50
2019-03-31T04:31:57.436Z,2.50
2019-03-31T04:34:25.974Z,2.40
2019-03-31T04:36:54.473Z,2.40
2019-03-31T04:39:22.910Z,2.40
2019-03-31T04:41:51.318Z,2.40
2019-03-31T04:44:19.747Z,2.50
2019-03-31T04:46:48.167Z,2.50
2019-03-31T04:49:16.594Z,2.50
2019-03-31T04:51:45.071Z,2.50
2019-03-31T04:54:13.505Z,2.50
2019-03-31T04:56:41.926Z,2.60
2019-03-31T04:59:10.357Z,2.60
2019-03-31T05:01:38.782Z,2.60
2019-03-31T05:04:07.216Z,2.50
2019-03-31T05:06:35.626Z,2.30
2019-03-31T05:09:05.418Z,2.20
2019-03-31T05:11:34.351Z,2.20
2019-03-31T05:14:02.784Z,2.10
2019-03-31T05:16:31.207Z,2.10
2019-03-31T05:18:59.636Z,2.10
2019-03-31T05:21:28.046Z,2.20
2019-03-31T05:23:56.496Z,2.20
2019-03-31T05:26:24.990Z,2.30
2019-03-31T05:28:53.404Z,2.30
2019-03-31T05:31:21.858Z,2.40
2019-03-31T05:33:50.277Z,2.40
2019-03-31T05:36:18.696Z,2.50
2019-03-31T05:38:47.161Z,2.60
2019-03-31T05:41:15.570Z,2.50
2019-03-31T05:43:43.980Z,2.60
2019-03-31T05:46:12.423Z,2.60
2019-03-31T05:48:40.828Z,2.50
2019-03-31T05:51:09.250Z,2.60
2019-03-31T05:53:37.675Z,2.60
2019-03-31T05:56:06.113Z,2.60
2019-03-31T05:58:36.077Z,2.60
2019-03-31T06:01:04.500Z,2.70
2019-03-31T06:03:32.920Z,2.90
2019-03-31T06:06:01.338Z,3.20
2019-03-31T06:08:29.748Z,3.50
2019-03-31T06:10:58.173Z,3.90
2019-03-31T06:13:26.589Z,4.30
2019-03-31T06:15:55.096Z,4.50
2019-03-31T06:18:23.522Z,4.70
2019-03-31T06:20:51.954Z,4.80
2019-03-31T06:23:20.395Z,4.90
2019-03-31T06:25:48.905Z,5.10
2019-03-31T06:28:17.324Z,5.30
2019-03-31T06:30:45.782Z,5.50
2019-03-31T06:33:14.193Z,5.60
2019-03-31T06:35:42.660Z,5.60
2019-03-31T06:38:11.061Z,5.70
2019-03-31T06:40:40.570Z,5.70
2019-03-31T06:43:09.009Z,5.70
2019-03-31T06:45:37.420Z,5.70
2019-03-31T06:48:05.942Z,5.70
2019-03-31T06:50:34.563Z,5.80
2019-03-31T06:53:02.980Z,5.90
2019-03-31T06:55:31.430Z,6.00
2019-03-31T06:57:59.969Z,6.10
2019-03-31T07:00:28.697Z,6.10
2019-03-31T07:02:57.285Z,6.30
2019-03-31T07:05:25.692Z,6.40
2019-03-31T07:07:55.573Z,6.40
2019-03-31T07:10:23.987Z,6.60
2019-03-31T07:12:52.434Z,6.70
2019-03-31T07:15:20.852Z,6.90
2019-03-31T07:17:49.298Z,6.90
2019-03-31T07:20:17.953Z,7.10
2019-03-31T07:22:46.398Z,7.30
2019-03-31T07:25:15.669Z,7.40
2019-03-31T07:27:44.199Z,7.50
2019-03-31T07:30:18.273Z,7.70
2019-03-31T07:32:46.685Z,7.80
2019-03-31T07:35:18.780Z,7.80
2019-03-31T07:37:47.540Z,8.00
2019-03-31T07:40:18.271Z,8.10
2019-03-31T07:42:47.042Z,8.20
2019-03-31T07:45:16.359Z,8.40
2019-03-31T07:47:45.205Z,8.50
2019-03-31T07:50:16.388Z,8.50
2019-03-31T07:52:44.878Z,8.60
2019-03-31T07:55:13.786Z,9.00
2019-03-31T07:57:42.510Z,9.10
2019-03-31T08:00:14.737Z,9.40
2019-03-31T08:02:43.216Z,9.60
2019-03-31T08:05:11.901Z,9.70
2019-03-31T08:07:40.422Z,9.80
2019-03-31T08:10:10.589Z,10.00
2019-03-31T08:12:39.069Z,10.10
2019-03-31T08:15:09.158Z,10.30
2019-03-31T08:17:38.798Z,10.60
2019-03-31T08:20:10.072Z,10.80
2019-03-31T08:22:38.513Z,11.00
2019-03-31T08:25:07.583Z,11.00
2019-03-31T08:27:36.062Z,11.20
2019-03-31T08:30:07.572Z,11.40
2019-03-31T08:32:36.080Z,11.50
2019-03-31T08:35:09.009Z,11.60
2019-03-31T08:40:28.414Z,11.90
2019-03-31T08:54:03.953Z,12.60
2019-03-31T08:59:12.660Z,13.00
2019-03-31T09:04:32.797Z,13.30
2019-03-31T09:12:48.995Z,13.70
2019-03-31T09:21:22.063Z,14.30
2019-03-31T09:29:43.727Z,15.00
2019-03-31T09:32:11.393Z,15.10
2019-03-31T09:34:39.833Z,15.20
2019-03-31T09:37:09.705Z,15.50
2019-03-31T09:45:37.951Z,16.00
2019-03-31T09:51:04.745Z,16.40
2019-03-31T09:59:17.526Z,16.70
2019-03-31T10:01:46.619Z,16.80
2019-03-31T10:04:21.570Z,17.00
2019-03-31T10:09:54.217Z,17.20
2019-03-31T10:18:18.089Z,17.70
2019-03-31T10:35:53.156Z,18.50
2019-03-31T10:41:32.381Z,18.70
2019-03-31T10:44:02.251Z,18.70
2019-03-31T10:49:40.552Z,18.80
2019-03-31T10:55:08.618Z,18.80
2019-03-31T10:57:42.735Z,18.80
2019-03-31T11:00:15.592Z,18.90
2019-03-31T11:05:36.626Z,19.00
2019-03-31T11:11:18.450Z,19.20
2019-03-31T11:16:53.248Z,19.40
2019-03-31T11:25:36.647Z,19.40
2019-03-31T11:28:13.643Z,19.50
2019-03-31T11:30:45.019Z,19.60
2019-03-31T11:33:19.968Z,19.60
2019-03-31T11:35:48.582Z,19.60
2019-03-31T11:38:18.728Z,19.60
2019-03-31T11:40:48.724Z,19.50
2019-03-31T11:43:20.170Z,19.60
2019-03-31T11:46:04.592Z,19.70
2019-03-31T11:48:41.611Z,19.70
2019-03-31T11:51:19.168Z,19.70
2019-03-31T11:53:56.023Z,19.40
2019-03-31T11:59:43.696Z,19.00
2019-03-31T12:01:53.270Z,18.90
2019-03-31T12:07:28.331Z,18.90
2019-03-31T12:09:55.642Z,18.90
2019-03-31T12:12:25.666Z,18.90
2019-03-31T12:15:08.982Z,18.80
2019-03-31T12:20:32.674Z,18.70
2019-03-31T12:25:58.461Z,18.60
2019-03-31T12:28:26.990Z,18.80
2019-03-31T12:31:06.320Z,18.80
2019-03-31T12:33:48.510Z,18.90
2019-03-31T12:36:18.898Z,19.00
2019-03-31T12:38:49.432Z,19.00
2019-03-31T12:41:18.128Z,19.10
2019-03-31T12:43:46.631Z,19.20
2019-03-31T12:46:15.172Z,19.30
2019-03-31T12:48:43.695Z,19.40
2019-03-31T12:51:12.646Z,19.50
2019-03-31T12:53:41.107Z,19.50
2019-03-31T12:56:09.529Z,19.60
2019-03-31T12:58:37.972Z,19.80
2019-03-31T13:04:14.893Z,20.00
2019-03-31T13:06:44.236Z,20.30
2019-03-31T13:09:14.615Z,20.40
2019-03-31T13:14:46.721Z,20.30
2019-03-31T13:17:23.459Z,20.20
2019-03-31T13:19:51.913Z,20.10
2019-03-31T13:22:20.359Z,20.00
2019-03-31T13:25:18.067Z,19.90
2019-03-31T13:27:48.027Z,19.80
2019-03-31T13:30:16.645Z,19.70
2019-03-31T13:33:01.174Z,19.70
2019-03-31T13:38:20.392Z,19.70
2019-03-31T13:40:50.464Z,19.80
2019-03-31T13:43:18.958Z,19.80
2019-03-31T13:51:35.350Z,20.20
2019-03-31T13:54:07.229Z,20.40
2019-03-31T13:56:36.458Z,20.60
2019-03-31T14:02:02.985Z,20.40
2019-03-31T14:04:36.994Z,20.50
2019-03-31T14:07:06.902Z,20.50
2019-03-31T14:09:35.690Z,20.40
2019-03-31T14:12:04.220Z,20.30
2019-03-31T14:14:35.299Z,20.50
2019-03-31T14:17:04.740Z,20.60
2019-03-31T14:19:33.232Z,20.60
2019-03-31T14:25:01.256Z,20.90
2019-03-31T14:27:29.722Z,21.00
2019-03-31T14:30:12.703Z,21.30
2019-03-31T14:35:40.058Z,21.60
2019-03-31T14:38:10.627Z,21.80
2019-03-31T14:40:42.744Z,21.90
2019-03-31T14:43:11.324Z,22.00
2019-03-31T14:45:39.798Z,22.40
2019-03-31T14:48:08.226Z,22.70
2019-03-31T14:50:37.639Z,23.50
2019-03-31T14:53:23.278Z,23.90
2019-03-31T14:55:53.445Z,24.80
2019-03-31T14:58:33.495Z,26.00
2019-03-31T15:03:56.186Z,26.70
2019-03-31T15:06:24.826Z,26.40
2019-03-31T15:11:51.052Z,26.00
2019-03-31T15:17:06.413Z,25.10
2019-03-31T15:19:38.360Z,24.90
2019-03-31T15:25:01.198Z,24.20
2019-03-31T15:27:29.630Z,23.10
2019-03-31T15:29:58.149Z,22.60
2019-03-31T15:32:26.679Z,22.80
2019-03-31T15:34:56.692Z,23.40
2019-03-31T15:37:25.218Z,23.80
2019-03-31T15:39:55.502Z,24.00
2019-03-31T15:42:24.099Z,24.10
2019-03-31T15:47:42.219Z,22.70
2019-03-31T15:50:12.165Z,22.20
2019-03-31T15:52:43.041Z,21.60
2019-03-31T15:57:52.048Z,21.20
2019-03-31T16:03:13.375Z,21.20
2019-03-31T16:08:34.051Z,21.10
2019-03-31T16:13:51.860Z,21.00
2019-03-31T16:19:08.209Z,20.60
2019-03-31T16:21:38.248Z,20.40
2019-03-31T16:24:06.899Z,20.30
2019-03-31T16:29:39.611Z,20.10
2019-03-31T16:32:13.869Z,20.00
2019-03-31T16:34:50.439Z,19.90
2019-03-31T16:37:18.888Z,19.80
2019-03-31T16:39:47.335Z,19.70
2019-03-31T16:42:16.150Z,19.50
2019-03-31T16:47:38.829Z,19.40
2019-03-31T16:50:11.387Z,19.30
2019-03-31T16:52:40.368Z,19.20
2019-03-31T16:55:09.874Z,19.10
2019-03-31T16:57:38.326Z,19.00
2019-03-31T17:00:07.795Z,19.00
2019-03-31T17:02:36.258Z,18.90
2019-03-31T17:05:20.778Z,18.90
2019-03-31T17:07:36.599Z,18.80
2019-03-31T17:10:07.341Z,18.70
2019-03-31T17:12:35.829Z,18.70
2019-03-31T17:15:06.426Z,18.60
2019-03-31T17:17:35.184Z,18.60
2019-03-31T17:20:05.616Z,18.50
2019-03-31T17:22:34.145Z,18.40
2019-03-31T17:25:02.784Z,18.30
2019-03-31T17:27:31.711Z,18.20
2019-03-31T17:30:00.385Z,18.10
2019-03-31T17:32:28.922Z,18.10
2019-03-31T17:34:58.256Z,18.00
2019-03-31T17:37:26.681Z,17.90
2019-03-31T17:40:05.932Z,17.90
2019-03-31T17:42:25.721Z,17.80
2019-03-31T17:44:54.277Z,17.70
2019-03-31T17:47:22.681Z,17.60
2019-03-31T17:49:51.149Z,17.60
2019-03-31T17:52:19.875Z,17.50
2019-03-31T17:54:48.321Z,17.40
2019-03-31T17:57:16.911Z,17.40
2019-03-31T17:59:45.359Z,17.20
2019-03-31T18:02:13.809Z,17.20
2019-03-31T18:04:42.338Z,17.10
2019-03-31T18:07:10.816Z,16.90
2019-03-31T18:09:39.318Z,16.80
2019-03-31T18:12:07.806Z,16.80
2019-03-31T18:14:36.232Z,16.70
2019-03-31T18:17:04.766Z,16.70
2019-03-31T18:19:33.374Z,16.60
2019-03-31T18:22:15.531Z,16.60
2019-03-31T18:24:31.990Z,16.50
2019-03-31T18:27:00.468Z,16.50
2019-03-31T18:29:34.966Z,16.40
2019-03-31T18:32:05.032Z,16.40
2019-03-31T18:34:33.537Z,16.30
2019-03-31T18:37:01.985Z,16.20
2019-03-31T18:39:30.446Z,16.20
2019-03-31T18:41:58.949Z,16.20
2019-03-31T18:44:27.962Z,16.00
2019-03-31T18:46:56.522Z,15.90
2019-03-31T18:49:25.090Z,15.80
2019-03-31T18:51:53.622Z,15.70
2019-03-31T18:54:29.636Z,15.50
2019-03-31T18:56:59.815Z,15.20
2019-03-31T18:59:39.538Z,14.90
2019-03-31T19:02:15.356Z,14.60
2019-03-31T19:04:54.213Z,14.20
2019-03-31T19:07:26.992Z,13.90
2019-03-31T19:10:23.991Z,13.70
2019-03-31T19:12:52.931Z,13.50
2019-03-31T19:15:35.214Z,13.30
2019-03-31T19:18:11.268Z,13.00
2019-03-31T19:20:41.859Z,12.60
2019-03-31T19:23:29.164Z,12.30
2019-03-31T19:25:59.271Z,12.10
2019-03-31T19:28:33.551Z,11.90
2019-03-31T19:31:01.511Z,11.80
2019-03-31T19:33:51.633Z,11.70
2019-03-31T19:41:56.994Z,11.30
2019-03-31T19:44:45.332Z,11.20
2019-03-31T19:47:15.455Z,11.10
2019-03-31T19:50:01.990Z,11.00
2019-03-31T19:52:34.356Z,11.10
2019-03-31T19:55:04.596Z,11.00
2019-03-31T19:57:46.601Z,10.80
2019-03-31T20:00:19.896Z,10.60
2019-03-31T20:03:06.011Z,10.40
2019-03-31T20:05:36.130Z,10.20
2019-03-31T20:11:19.491Z,9.90
2019-03-31T20:13:54.366Z,9.90
2019-03-31T20:16:33.565Z,9.90
2019-03-31T20:19:26.477Z,9.80
2019-03-31T20:21:56.556Z,9.70
2019-03-31T20:24:28.314Z,9.70
2019-03-31T20:26:59.992Z,9.60
2019-03-31T20:29:38.426Z,9.50
2019-03-31T20:32:24.549Z,9.40
2019-03-31T20:35:14.693Z,9.50
2019-03-31T20:38:00.129Z,9.40
2019-03-31T20:43:24.968Z,9.20
2019-03-31T20:45:56.485Z,9.10
2019-03-31T20:48:33.053Z,8.90
2019-03-31T20:51:02.588Z,8.70
2019-03-31T20:53:31.060Z,8.60
2019-03-31T20:56:02.567Z,8.70
2019-03-31T20:58:31.105Z,8.80
2019-03-31T21:00:59.657Z,8.80
2019-03-31T21:03:31.941Z,8.80
2019-03-31T21:06:00.394Z,8.70
2019-03-31T21:08:28.960Z,8.50
2019-03-31T21:13:47.553Z,8.50
2019-03-31T21:16:16.030Z,8.70
2019-03-31T21:18:47.487Z,8.70
2019-03-31T21:21:15.959Z,8.70
2019-03-31T21:23:44.611Z,8.50
2019-03-31T21:26:13.244Z,8.30
2019-03-31T21:28:49.465Z,8.20
2019-03-31T21:31:22.622Z,8.20
2019-03-31T21:33:50.004Z,8.10
2019-03-31T21:36:18.417Z,8.20
2019-03-31T21:38:46.863Z,8.30
2019-03-31T21:44:12.981Z,8.10
2019-03-31T21:46:50.921Z,7.90
2019-03-31T21:49:21.011Z,7.90
2019-03-31T21:51:49.768Z,7.80
2019-03-31T21:54:32.532Z,7.70
2019-03-31T21:57:04.221Z,7.70
2019-03-31T21:59:36.726Z,7.60
2019-03-31T22:02:07.019Z,7.40
2019-03-31T22:04:38.509Z,7.30
2019-03-31T22:07:11.010Z,7.30
2019-03-31T22:09:39.514Z,7.30
2019-03-31T22:12:07.939Z,7.30
2019-03-31T22:14:36.399Z,7.10
2019-03-31T22:17:04.839Z,7.20
2019-03-31T22:19:33.668Z,7.10
2019-03-31T22:22:02.118Z,7.10
2019-03-31T22:24:30.772Z,7.00
2019-03-31T22:26:59.193Z,7.00
2019-03-31T22:29:27.614Z,6.80
2019-03-31T22:31:56.019Z,6.70
2019-03-31T22:34:24.465Z,6.60
2019-03-31T22:36:52.883Z,6.70
2019-03-31T22:39:21.615Z,6.70
2019-03-31T22:41:53.362Z,6.70
2019-03-31T22:44:21.436Z,6.60
2019-03-31T22:46:54.328Z,6.50
2019-03-31T22:49:20.110Z,6.40
2019-03-31T22:51:53.727Z,6.50
2019-03-31T22:54:22.758Z,6.50
2019-03-31T22:56:52.753Z,6.60
2019-03-31T22:59:21.159Z,6.60
2019-03-31T23:01:49.584Z,6.60
2019-03-31T23:04:20.035Z,6.50
2019-03-31T23:07:06.385Z,6.40
2019-03-31T23:09:36.993Z,6.60
2019-03-31T23:12:18.562Z,6.60
2019-03-31T23:14:50.415Z,6.50
2019-03-31T23:17:21.170Z,6.70
2019-03-31T23:19:49.645Z,6.70
2019-03-31T23:22:31.820Z,6.60
2019-03-31T23:25:06.252Z,6.60
2019-03-31T23:27:34.383Z,6.60
2019-03-31T23:30:23.441Z,6.60
2019-03-31T23:35:47.409Z,6.40
2019-03-31T23:38:15.821Z,6.20
2019-03-31T23:40:44.314Z,6.00
2019-03-31T23:43:12.786Z,6.00
2019-03-31T23:45:41.279Z,5.90
2019-03-31T23:48:09.696Z,5.80
2019-03-31T23:50:38.166Z,5.80
2019-03-31T23:53:06.722Z,5.60
2019-03-31T23:55:41.417Z,5.60
2019-03-31T23:58:13.720Z,5.60
